Time;durP1;ratioP1;P1;durP2;ratioP2;P2;SDS_P1;SDS_P2;PMS_P1;PMS_P2;Temp;Humidity;BMP_temperature;BMP_pressure;BME280_temperature;BME280_humidity;BME280_pressure;Samples;Min_cycle;Max_cycle;Signal;HPM_P1;HPM_P2
2021/11/22 00:02:22;;;;;;;41.92;22.48;;;;;;;3.91;69.80;99953.34;5031043;28;20087;-21
2021/11/22 00:04:48;;;;;;;41.40;21.15;;;;;;;3.17;72.45;99951.25;5049104;28;20170;-21
2021/11/22 00:07:15;;;;;;;36.03;21.63;;;;;;;3.56;71.79;99966.16;5048697;28;20055;-21
2021/11/22 00:09:41;;;;;;;42.53;22.98;;;;;;;3.60;70.01;99954.25;5048702;28;20035;-20
2021/11/22 00:12:07;;;;;;;35.97;21.02;;;;;;;3.60;71.28;99954.25;5048396;28;20068;-22
2021/11/22 00:14:32;;;;;;;41.38;20.38;;;;;;;3.06;73.93;99959.53;5030925;28;20126;-21
2021/11/22 00:16:58;;;;;;;38.63;19.30;;;;;;;3.39;73.70;99959.31;5048545;28;20029;-21
2021/11/22 00:19:24;;;;;;;32.70;19.50;;;;;;;3.75;73.10;99962.22;5048633;28;20040;-21
2021/11/22 00:21:49;;;;;;;27.35;18.35;;;;;;;3.80;72.94;99961.66;5048759;28;20087;-21
2021/11/22 00:24:15;;;;;;;35.97;22.52;;;;;;;3.55;72.27;99959.22;5048287;28;20083;-21
2021/11/22 00:26:40;;;;;;;30.02;19.52;;;;;;;3.13;73.62;99963.13;5030575;28;20090;-21
2021/11/22 00:29:05;;;;;;;76.65;31.33;;;;;;;3.58;73.32;99958.88;5048788;28;20059;-21
2021/11/22 00:31:31;;;;;;;67.65;31.23;;;;;;;3.83;71.10;99966.59;5030407;28;20029;-30
2021/11/22 00:33:57;;;;;;;39.40;23.63;;;;;;;3.99;71.10;99965.66;5048216;28;20040;-21
2021/11/22 00:36:24;;;;;;;46.17;26.65;;;;;;;4.28;70.06;99975.44;5030668;28;20076;-21
2021/11/22 00:38:49;;;;;;;33.47;20.95;;;;;;;4.34;69.69;99968.63;5048199;28;20116;-20
2021/11/22 00:41:15;;;;;;;34.05;19.63;;;;;;;3.93;70.21;99959.28;5048558;28;20120;-21
2021/11/22 00:43:40;;;;;;;30.63;19.42;;;;;;;4.04;69.91;99955.38;5030614;28;20090;-21
2021/11/22 00:46:07;;;;;;;31.40;19.30;;;;;;;3.97;71.27;99967.66;5048504;28;20829;-20
2021/11/22 00:48:34;;;;;;;32.22;18.05;;;;;;;3.58;71.77;99963.34;5014303;28;20048;-21
2021/11/22 00:51:00;;;;;;;30.70;18.52;;;;;;;3.99;70.28;99955.09;5048335;28;20024;-21
2021/11/22 00:53:25;;;;;;;27.58;16.98;;;;;;;4.12;70.23;99952.66;5048289;28;20044;-20
2021/11/22 00:55:51;;;;;;;27.73;17.65;;;;;;;3.61;70.66;99969.06;5048336;28;20033;-21
2021/11/22 00:58:16;;;;;;;30.95;18.95;;;;;;;3.28;71.62;99962.38;5048064;28;20121;-21
2021/11/22 01:00:42;;;;;;;34.15;20.00;;;;;;;3.76;70.03;99970.94;5048021;28;20063;-21
2021/11/22 01:03:07;;;;;;;35.03;19.30;;;;;;;3.47;70.50;99954.00;5048333;28;20041;-21
2021/11/22 01:05:33;;;;;;;35.85;19.88;;;;;;;3.20;70.98;99961.41;5047980;28;20516;-21
2021/11/22 01:07:58;;;;;;;34.45;18.85;;;;;;;3.37;70.45;99961.31;5030257;28;20060;-21
2021/11/22 01:10:24;;;;;;;32.08;18.58;;;;;;;3.34;70.24;99965.13;5047886;28;20036;-21
2021/11/22 01:12:50;;;;;;;35.25;19.90;;;;;;;2.95;72.81;99965.19;5030424;28;20040;-21
2021/11/22 01:15:18;;;;;;;36.78;20.23;;;;;;;3.55;70.81;99972.41;5046631;28;20072;-21
2021/11/22 01:17:44;;;;;;;33.15;18.30;;;;;;;3.24;71.13;99976.91;5013916;28;20033;-21
2021/11/22 01:20:11;;;;;;;35.90;20.80;;;;;;;2.47;73.29;99974.88;5047584;28;20037;-21
2021/11/22 01:22:40;;;;;;;30.85;18.25;;;;;;;2.35;72.71;99961.25;5047648;28;20033;-20
2021/11/22 01:25:06;;;;;;;30.85;18.13;;;;;;;2.08;73.75;99967.72;5030518;28;20040;-21
2021/11/22 01:27:32;;;;;;;35.83;19.58;;;;;;;2.41;72.90;99961.41;5030268;28;20026;-20
2021/11/22 01:29:57;;;;;;;35.20;19.83;;;;;;;2.44;72.93;99954.19;5048230;28;20036;-21
2021/11/22 01:32:23;;;;;;;36.47;19.90;;;;;;;2.31;73.21;99955.53;5029659;28;20036;-21
2021/11/22 01:34:48;;;;;;;38.15;20.02;;;;;;;2.00;74.07;99943.06;5047837;28;20033;-21
2021/11/22 01:37:14;;;;;;;42.42;21.08;;;;;;;2.33;73.51;99953.53;5047793;28;20124;-21
2021/11/22 01:39:39;;;;;;;37.67;21.25;;;;;;;2.97;70.74;99956.09;5048105;28;20830;-22
2021/11/22 01:42:05;;;;;;;42.90;22.23;;;;;;;3.29;69.58;99949.03;5047613;28;20036;-21
2021/11/22 01:44:31;;;;;;;46.53;23.77;;;;;;;3.55;68.87;99943.41;5047504;28;20409;-20
2021/11/22 01:46:56;;;;;;;40.30;20.77;;;;;;;2.58;71.85;99942.94;5029835;28;20037;-21
2021/11/22 01:49:22;;;;;;;41.63;22.05;;;;;;;1.98;73.32;99934.53;5047622;28;20509;-21
2021/11/22 01:51:47;;;;;;;42.20;22.15;;;;;;;1.70;74.61;99930.59;5047484;28;20037;-20
2021/11/22 01:54:13;;;;;;;46.00;22.65;;;;;;;2.42;72.87;99946.44;5047470;28;20032;-20
2021/11/22 01:56:39;;;;;;;48.55;25.90;;;;;;;2.99;71.66;99948.03;5047556;28;20570;-21
2021/11/22 01:59:04;;;;;;;50.33;26.70;;;;;;;3.17;70.29;99932.78;5030294;28;20036;-21
2021/11/22 02:01:30;;;;;;;47.15;25.95;;;;;;;3.20;70.79;99935.06;5050353;28;20479;-20
2021/11/22 02:03:55;;;;;;;45.05;25.85;;;;;;;3.35;70.41;99942.22;5051227;28;20033;-21
2021/11/22 02:06:21;;;;;;;52.08;29.42;;;;;;;3.29;71.32;99932.38;5032662;28;20508;-22
2021/11/22 02:08:48;;;;;;;55.75;30.20;;;;;;;3.18;71.09;99905.44;5051338;28;20390;-20
2021/11/22 02:11:13;;;;;;;68.53;37.00;;;;;;;2.97;72.14;99935.03;5050778;28;20423;-21
2021/11/22 02:13:40;;;;;;;63.63;35.72;;;;;;;3.45;70.83;99932.25;5051062;28;20033;-21
2021/11/22 02:16:05;;;;;;;68.03;35.83;;;;;;;3.39;71.44;99928.53;5032797;28;20421;-22
2021/11/22 02:18:31;;;;;;;65.82;35.83;;;;;;;2.98;73.68;99941.97;5050698;28;20087;-21
2021/11/22 02:20:56;;;;;;;61.00;33.75;;;;;;;2.28;75.03;99940.06;5050870;28;20083;-20
2021/11/22 02:23:23;;;;;;;67.10;33.22;;;;;;;2.80;72.48;99929.03;5050929;28;20057;-21
2021/11/22 02:25:49;;;;;;;72.20;37.33;;;;;;;2.67;73.27;99934.00;5050814;28;20481;-20
2021/11/22 02:28:15;;;;;;;71.63;36.15;;;;;;;3.14;72.85;99929.69;5050387;28;20036;-21
2021/11/22 02:30:42;;;;;;;68.28;36.67;;;;;;;2.63;73.76;99932.72;5050722;28;20029;-21
2021/11/22 02:33:27;;;;;;;79.57;36.87;;;;;;;2.50;74.75;99942.97;5050534;28;20033;-21
2021/11/22 02:35:57;;;;;;;157.68;62.50;;;;;;;3.06;73.43;99943.72;5050634;28;20036;-21
2021/11/22 02:38:36;;;;;;;157.30;61.42;;;;;;;2.74;75.08;99928.91;5050422;28;20114;-21
2021/11/22 02:41:03;;;;;;;147.30;57.80;;;;;;;2.96;74.97;99928.13;5033061;28;20036;-21
2021/11/22 02:43:29;;;;;;;86.97;37.05;;;;;;;2.67;75.19;99944.53;5032722;28;20505;-21
2021/11/22 02:45:55;;;;;;;77.90;34.35;;;;;;;2.30;76.39;99938.06;5050257;28;20033;-21
2021/11/22 02:48:20;;;;;;;63.97;33.80;;;;;;;2.61;75.36;99927.59;5032376;28;20067;-21
2021/11/22 02:50:46;;;;;;;60.83;32.72;;;;;;;2.79;74.20;99927.38;5050264;28;20033;-21
2021/11/22 02:53:12;;;;;;;64.15;34.78;;;;;;;3.18;73.46;99929.16;5050332;28;20040;-21
2021/11/22 02:55:37;;;;;;;61.58;31.45;;;;;;;2.59;74.69;99926.97;5032593;28;20029;-22
2021/11/22 02:58:03;;;;;;;60.15;31.08;;;;;;;2.08;76.92;99928.25;5032594;28;20044;-21
2021/11/22 03:00:30;;;;;;;60.40;30.52;;;;;;;1.86;78.39;99935.84;5049864;28;20029;-21
2021/11/22 03:02:55;;;;;;;54.85;31.23;;;;;;;1.73;78.08;99936.34;5032235;28;20068;-21
2021/11/22 03:05:21;;;;;;;51.58;29.83;;;;;;;1.90;77.94;99947.69;5050291;28;20459;-21
2021/11/22 03:07:47;;;;;;;54.00;29.90;;;;;;;1.80;78.15;99939.16;5015370;28;20489;-21
2021/11/22 03:10:14;;;;;;;52.33;29.45;;;;;;;1.88;77.81;99954.06;5049467;28;20036;-21
2021/11/22 03:12:39;;;;;;;54.88;29.27;;;;;;;1.83;77.25;99935.38;5048892;28;20110;-21
2021/11/22 03:15:09;;;;;;;48.67;27.17;;;;;;;2.39;74.96;99952.88;5049823;28;20131;-21
2021/11/22 03:17:35;;;;;;;51.55;28.10;;;;;;;1.88;76.92;99960.19;5032343;28;20166;-21
2021/11/22 03:20:00;;;;;;;43.08;26.60;;;;;;;1.96;76.47;99925.13;5032003;28;20033;-21
2021/11/22 03:22:26;;;;;;;44.90;27.45;;;;;;;2.27;75.24;99937.59;5049357;28;20033;-21
2021/11/22 03:24:51;;;;;;;44.80;27.35;;;;;;;2.47;76.18;99954.63;5049719;28;20036;-21
2021/11/22 03:27:17;;;;;;;45.35;27.23;;;;;;;1.90;75.75;99963.47;5049563;28;20040;-20
2021/11/22 03:29:42;;;;;;;53.42;28.98;;;;;;;1.94;74.79;99948.16;5049571;28;20025;-21
2021/11/22 03:32:08;;;;;;;51.17;29.58;;;;;;;2.51;73.20;99955.13;5049541;28;20037;-22
2021/11/22 03:34:34;;;;;;;49.25;29.20;;;;;;;2.50;73.77;99958.78;5049853;28;20029;-21
2021/11/22 03:37:04;;;;;;;48.05;28.63;;;;;;;2.06;73.97;99946.81;5031411;28;20032;-21
2021/11/22 03:39:30;;;;;;;52.40;29.35;;;;;;;2.00;75.08;99948.34;5049525;28;20044;-21
2021/11/22 03:41:58;;;;;;;53.67;30.58;;;;;;;2.24;74.49;99959.81;5049363;28;20054;-21
2021/11/22 03:44:24;;;;;;;56.95;31.83;;;;;;;2.51;73.29;99960.41;5031200;28;20024;-21
2021/11/22 03:46:51;;;;;;;64.30;34.30;;;;;;;2.52;73.00;99964.69;5049378;28;20082;-21
2021/11/22 03:49:17;;;;;;;56.70;31.35;;;;;;;2.72;72.23;99955.41;5049115;28;20068;-21
2021/11/22 03:51:42;;;;;;;56.50;32.33;;;;;;;3.03;70.68;99959.88;5048506;28;20495;-21
2021/11/22 03:54:08;;;;;;;53.05;31.00;;;;;;;2.77;71.65;99958.31;5048877;28;20040;-20
2021/11/22 03:56:34;;;;;;;53.92;30.98;;;;;;;2.46;72.93;99958.28;5031263;28;20059;-21
2021/11/22 03:58:59;;;;;;;56.10;31.88;;;;;;;1.64;73.03;99952.28;5031278;28;20032;-22
2021/11/22 04:01:25;;;;;;;47.13;27.83;;;;;;;0.90;74.64;99960.00;5049241;28;20497;-21
2021/11/22 04:03:50;;;;;;;48.45;26.85;;;;;;;0.82;74.40;99967.84;5049351;28;20037;-21
2021/11/22 04:06:16;;;;;;;45.63;26.10;;;;;;;0.93;74.84;99980.69;5048261;28;20029;-21
2021/11/22 04:08:42;;;;;;;47.13;26.55;;;;;;;1.43;72.80;99981.66;5031105;28;20033;-20
2021/11/22 04:11:08;;;;;;;56.08;30.58;;;;;;;1.76;71.85;99964.13;5048716;28;20099;-20
2021/11/22 04:13:33;;;;;;;68.95;35.72;;;;;;;1.46;73.75;99976.91;5048728;28;20049;-20
2021/11/22 04:16:00;;;;;;;52.92;29.55;;;;;;;0.82;73.75;99957.34;5048464;28;20566;-22
2021/11/22 04:18:25;;;;;;;55.00;31.10;;;;;;;0.65;75.57;99969.56;5048316;28;20120;-20
2021/11/22 04:20:51;;;;;;;68.25;38.40;;;;;;;0.56;75.09;99966.09;5014769;28;20036;-21
2021/11/22 04:23:16;;;;;;;46.15;25.75;;;;;;;0.06;77.80;99972.00;5048516;28;20107;-22
2021/11/22 04:25:42;;;;;;;50.05;26.52;;;;;;;-0.10;78.29;99955.19;5048461;28;20029;-21
2021/11/22 04:28:07;;;;;;;53.17;27.33;;;;;;;-0.17;78.60;99976.91;5048333;28;20163;-21
2021/11/22 04:30:34;;;;;;;66.25;29.08;;;;;;;-0.13;79.25;99980.88;5048336;28;20052;-20
2021/11/22 04:33:00;;;;;;;59.00;30.33;;;;;;;-0.12;78.23;99969.41;5048329;28;20503;-21
2021/11/22 04:35:25;;;;;;;55.85;28.83;;;;;;;-0.19;78.64;99969.19;5048271;28;20028;-21
2021/11/22 04:37:51;;;;;;;63.30;30.10;;;;;;;0.22;78.16;99985.22;5048445;28;20064;-21
2021/11/22 04:40:17;;;;;;;59.53;29.92;;;;;;;0.69;76.04;99969.09;5048183;28;20447;-22
2021/11/22 04:42:47;;;;;;;56.97;29.33;;;;;;;0.50;76.00;99969.34;5047999;28;20706;-21
2021/11/22 04:45:13;;;;;;;65.38;31.42;;;;;;;0.23;78.50;99958.03;5029696;28;20036;-20
2021/11/22 04:47:38;;;;;;;80.57;37.70;;;;;;;0.90;77.24;99975.75;5048247;28;20025;-21
2021/11/22 04:50:04;;;;;;;100.95;38.65;;;;;;;1.37;76.78;99994.47;5047198;28;20499;-21
2021/11/22 04:52:30;;;;;;;103.88;46.90;;;;;;;1.03;77.12;99991.09;5047965;28;20039;-21
2021/11/22 04:54:55;;;;;;;92.07;37.67;;;;;;;0.93;77.63;99978.06;5048121;28;20408;-21
2021/11/22 04:57:21;;;;;;;85.82;32.67;;;;;;;0.71;78.80;99988.13;5048358;28;20037;-21
2021/11/22 04:59:46;;;;;;;80.72;38.25;;;;;;;1.32;76.53;100006.44;5048032;28;20036;-21
2021/11/22 05:02:12;;;;;;;69.75;35.70;;;;;;;1.02;76.42;99989.41;5047948;28;20040;-20
2021/11/22 05:04:37;;;;;;;89.20;42.28;;;;;;;0.71;78.00;99985.50;5048077;28;20055;-20
2021/11/22 05:07:03;;;;;;;63.65;35.38;;;;;;;1.29;76.22;99975.22;5030140;28;20057;-20
2021/11/22 05:09:29;;;;;;;63.78;32.88;;;;;;;1.22;75.30;99974.22;5047938;28;20037;-21
2021/11/22 05:11:54;;;;;;;50.05;29.35;;;;;;;1.50;74.77;99996.63;5047887;28;20090;-20
2021/11/22 05:14:20;;;;;;;55.78;31.40;;;;;;;1.06;77.41;99996.81;5047546;28;20064;-20
2021/11/22 05:16:45;;;;;;;61.40;32.08;;;;;;;1.46;75.70;99984.78;5047667;28;20497;-20
2021/11/22 05:19:11;;;;;;;58.60;31.02;;;;;;;1.93;74.49;100004.38;5030011;28;20115;-21
2021/11/22 05:21:37;;;;;;;52.33;30.00;;;;;;;2.54;72.24;100012.72;5048019;28;20477;-20
2021/11/22 05:24:03;;;;;;;58.03;31.10;;;;;;;2.33;73.31;100015.84;5047752;28;20033;-21
2021/11/22 05:26:31;;;;;;;67.95;33.08;;;;;;;2.40;73.71;100001.88;5047840;28;20102;-20
2021/11/22 05:28:57;;;;;;;;;;;;;;;2.71;72.92;100013.50;5031157;28;20025;-21
2021/11/22 05:31:23;;;;;;;121.93;51.17;;;;;;;2.62;72.82;100012.69;5047810;28;19917;-20
2021/11/22 05:33:52;;;;;;;112.15;46.65;;;;;;;2.09;73.92;100011.47;5048058;28;20032;-20
2021/11/22 05:36:17;;;;;;;77.57;37.97;;;;;;;2.30;73.60;100019.66;5050274;28;20036;-21
2021/11/22 05:38:43;;;;;;;83.10;40.25;;;;;;;2.43;72.85;100019.13;5051771;28;20047;-21
2021/11/22 05:41:08;;;;;;;80.55;40.55;;;;;;;1.85;74.52;100023.59;5051815;28;20029;-20
2021/11/22 05:43:37;;;;;;;66.07;36.33;;;;;;;2.25;73.13;100015.88;5051776;28;20912;-21
2021/11/22 05:46:05;;;;;;;67.20;38.88;;;;;;;2.05;73.65;100023.31;5051575;28;20090;-21
2021/11/22 05:48:31;;;;;;;93.32;41.53;;;;;;;1.64;74.90;100028.53;5051695;28;20041;-20
2021/11/22 05:50:56;;;;;;;85.43;43.15;;;;;;;1.15;77.50;100022.13;5051367;28;20032;-20
2021/11/22 05:53:22;;;;;;;75.88;41.58;;;;;;;1.36;76.84;100039.28;5033518;28;20021;-20
2021/11/22 05:55:51;;;;;;;105.20;51.85;;;;;;;1.58;76.53;100029.97;5051326;28;20115;-20
2021/11/22 05:58:17;;;;;;;110.22;52.88;;;;;;;2.09;74.52;100041.22;5033862;28;20033;-20
2021/11/22 06:00:43;;;;;;;109.15;52.15;;;;;;;2.08;74.54;100044.00;5051147;28;20090;-20
2021/11/22 06:03:08;;;;;;;109.85;59.05;;;;;;;2.44;73.12;100056.81;5050969;28;20082;-21
2021/11/22 06:05:34;;;;;;;111.00;61.20;;;;;;;2.99;71.28;100042.88;5051183;28;20037;-20
2021/11/22 06:07:59;;;;;;;113.53;56.25;;;;;;;3.23;69.64;100049.88;5051009;28;20060;-20
2021/11/22 06:10:25;;;;;;;99.18;54.00;;;;;;;2.89;71.81;100045.72;5050699;28;20451;-21
2021/11/22 06:12:51;;;;;;;90.78;45.25;;;;;;;3.00;71.64;100055.03;5051086;28;20489;-20
2021/11/22 06:15:16;;;;;;;96.22;47.55;;;;;;;3.30;71.06;100050.00;5050708;28;20053;-20
2021/11/22 06:17:42;;;;;;;74.85;45.08;;;;;;;3.13;71.83;100060.63;5050727;28;20044;-21
2021/11/22 06:20:08;;;;;;;90.13;51.13;;;;;;;2.95;71.98;100046.84;5050730;28;20029;-20
2021/11/22 06:22:34;;;;;;;101.45;54.80;;;;;;;2.53;73.69;100045.28;5051032;28;20123;-21
2021/11/22 06:24:59;;;;;;;63.47;37.38;;;;;;;3.04;72.35;100048.44;5050865;28;20039;-20
2021/11/22 06:27:25;;;;;;;61.75;35.33;;;;;;;3.10;72.56;100066.22;5051004;28;20512;-22
2021/11/22 06:29:51;;;;;;;67.47;37.70;;;;;;;3.50;71.04;100056.50;5050690;28;20040;-21
2021/11/22 06:32:17;;;;;;;65.05;36.05;;;;;;;3.38;71.90;100049.97;5050512;28;20064;-22
2021/11/22 06:34:42;;;;;;;68.10;44.05;;;;;;;3.72;71.18;100072.50;5051071;28;20029;-21
2021/11/22 06:37:08;;;;;;;66.35;40.05;;;;;;;3.66;72.68;100078.47;5032744;28;20032;-20
2021/11/22 06:39:34;;;;;;;77.43;44.42;;;;;;;4.19;71.17;100072.38;5050887;28;20115;-20
2021/11/22 06:41:59;;;;;;;60.80;34.55;;;;;;;3.81;71.42;100074.13;5050756;28;20061;-20
2021/11/22 06:44:24;;;;;;;73.00;44.63;;;;;;;3.11;74.95;100088.94;5050039;28;20025;-20
2021/11/22 06:46:50;;;;;;;75.10;43.85;;;;;;;2.49;76.88;100083.47;5050268;28;20032;-20
2021/11/22 06:49:16;;;;;;;70.18;42.42;;;;;;;2.40;78.30;100096.63;5050458;28;20028;-20
2021/11/22 06:51:42;;;;;;;76.13;45.67;;;;;;;3.11;76.83;100088.94;5049930;28;20033;-21
2021/11/22 06:54:08;;;;;;;83.22;47.20;;;;;;;3.49;74.58;100097.03;5050408;28;20040;-20
2021/11/22 06:56:33;;;;;;;76.35;44.63;;;;;;;4.05;73.36;100096.06;5050226;28;20444;-20
2021/11/22 06:58:58;;;;;;;78.32;45.20;;;;;;;4.13;73.62;100096.84;5032307;28;20040;-20
2021/11/22 07:01:24;;;;;;;79.82;46.65;;;;;;;4.35;73.76;100103.09;5049884;28;20492;-20
2021/11/22 07:03:49;;;;;;;74.63;43.30;;;;;;;4.76;73.65;100102.75;5049986;28;20044;-20
2021/11/22 07:06:15;;;;;;;71.43;47.05;;;;;;;4.76;73.74;100102.75;5049862;28;20390;-21
2021/11/22 07:08:40;;;;;;;65.53;39.15;;;;;;;4.73;73.92;100092.53;5050173;28;20033;-21
2021/11/22 07:11:06;;;;;;;58.83;34.33;;;;;;;4.97;73.02;100106.50;5050093;28;20041;-20
2021/11/22 07:13:33;;;;;;;69.13;43.25;;;;;;;4.95;74.56;100114.59;5050005;28;20033;-21
2021/11/22 07:15:59;;;;;;;74.90;46.63;;;;;;;5.12;73.37;100098.56;5049735;28;20053;-21
2021/11/22 07:18:24;;;;;;;72.47;44.45;;;;;;;4.60;77.01;100109.00;5049674;28;20028;-20
2021/11/22 07:20:49;;;;;;;71.68;43.80;;;;;;;4.63;76.98;100091.97;5049536;28;20474;-20
2021/11/22 07:23:21;;;;;;;70.60;43.28;;;;;;;5.24;76.01;100108.50;5049694;28;20036;-21
2021/11/22 07:25:46;;;;;;;65.65;40.55;;;;;;;5.85;73.13;100099.47;5049557;28;20090;-20
2021/11/22 07:28:12;;;;;;;64.80;39.28;;;;;;;5.69;73.49;100084.63;5049346;28;20033;-21
2021/11/22 07:30:37;;;;;;;63.78;39.45;;;;;;;5.89;72.96;100090.16;5049474;28;20040;-21
2021/11/22 07:33:03;;;;;;;55.42;36.30;;;;;;;6.37;72.61;100085.13;5049334;28;20033;-20
2021/11/22 07:35:29;;;;;;;44.40;29.75;;;;;;;6.43;72.71;100081.72;5049235;28;20037;-20
2021/11/22 07:37:54;;;;;;;55.13;36.28;;;;;;;6.12;74.91;100095.28;5049291;28;20032;-20
2021/11/22 07:40:21;;;;;;;51.08;31.23;;;;;;;5.88;75.33;100100.91;5049238;28;20021;-20
2021/11/22 07:42:50;;;;;;;44.95;29.65;;;;;;;5.77;75.14;100104.88;5049128;28;20041;-20
2021/11/22 07:45:16;;;;;;;43.58;28.60;;;;;;;5.81;75.70;100092.91;5049460;28;20036;-20
2021/11/22 07:47:41;;;;;;;43.90;27.90;;;;;;;6.02;74.89;100095.59;5049160;28;20041;-20
2021/11/22 07:50:07;;;;;;;40.42;26.85;;;;;;;6.25;75.25;100102.53;5049370;28;20035;-22
2021/11/22 07:52:32;;;;;;;43.80;27.65;;;;;;;6.55;73.51;100105.06;5049269;28;20544;-20
2021/11/22 07:54:58;;;;;;;42.13;27.17;;;;;;;6.53;73.85;100091.19;5049333;28;20048;-20
2021/11/22 07:57:23;;;;;;;38.60;25.92;;;;;;;6.86;73.20;100106.50;5048738;28;20464;-20
2021/11/22 07:59:51;;;;;;;44.45;27.80;;;;;;;6.99;73.19;100096.81;5048881;28;20036;-20
2021/11/22 08:02:16;;;;;;;43.58;28.60;;;;;;;6.83;74.07;100092.63;5048956;28;20033;-20
2021/11/22 08:04:42;;;;;;;41.72;27.73;;;;;;;7.25;73.28;100090.00;5048502;28;20040;-20
2021/11/22 08:07:14;;;;;;;43.05;27.85;;;;;;;7.38;72.08;100097.25;5049040;28;20029;-21
2021/11/22 08:09:57;;;;;;;42.42;27.05;;;;;;;7.36;71.27;100086.81;5048723;28;20108;-20
2021/11/22 08:12:26;;;;;;;43.00;28.27;;;;;;;7.68;70.74;100092.44;5048426;28;20516;-21
2021/11/22 08:14:53;;;;;;;42.22;28.50;;;;;;;8.03;69.67;100098.47;5030969;28;20486;-20
2021/11/22 08:17:19;;;;;;;39.35;25.75;;;;;;;8.04;68.46;100108.06;5048166;28;20043;-20
2021/11/22 08:19:44;;;;;;;36.30;23.38;;;;;;;8.04;68.65;100104.59;5030164;28;20029;-21
2021/11/22 08:22:10;;;;;;;36.97;23.55;;;;;;;8.01;68.69;100102.34;5048010;28;20033;-20
2021/11/22 08:24:36;;;;;;;40.70;25.85;;;;;;;8.43;68.12;100098.53;5048731;28;20703;-20
2021/11/22 08:27:02;;;;;;;36.33;24.42;;;;;;;8.51;67.26;100102.03;5048703;28;20060;-20
2021/11/22 08:29:27;;;;;;;35.05;23.10;;;;;;;8.44;66.43;100100.19;5048533;28;20053;-20
2021/11/22 08:31:53;;;;;;;40.38;22.13;;;;;;;8.81;65.75;100100.59;5048708;28;20032;-20
2021/11/22 08:34:18;;;;;;;30.08;21.30;;;;;;;9.30;63.81;100108.28;5047932;28;20040;-20
2021/11/22 08:36:44;;;;;;;31.65;20.42;;;;;;;9.35;62.98;100116.44;5049039;28;20114;-20
2021/11/22 08:39:09;;;;;;;31.80;20.98;;;;;;;9.45;63.13;100100.84;5048253;28;20044;-20
2021/11/22 08:41:35;;;;;;;32.13;21.67;;;;;;;9.27;63.33;100098.03;5048099;28;20021;-21
2021/11/22 08:44:01;;;;;;;36.35;21.95;;;;;;;9.65;63.29;100101.56;5048012;28;20036;-20
2021/11/22 08:46:26;;;;;;;36.00;20.77;;;;;;;10.24;61.70;100088.94;5048048;28;20033;-20
2021/11/22 08:48:52;;;;;;;33.30;20.55;;;;;;;10.31;61.47;100099.56;5048447;28;20036;-20
2021/11/22 08:51:17;;;;;;;28.95;19.88;;;;;;;10.52;60.97;100090.41;5030615;28;20036;-20
2021/11/22 08:53:43;;;;;;;31.45;20.27;;;;;;;10.65;59.97;100094.81;5030235;28;20485;-20
2021/11/22 08:56:08;;;;;;;27.77;18.02;;;;;;;10.93;59.36;100098.84;5047844;28;20029;-21
2021/11/22 08:58:34;;;;;;;28.77;18.50;;;;;;;11.02;58.59;100100.22;5048227;28;20037;-20
2021/11/22 09:00:59;;;;;;;31.05;19.42;;;;;;;11.18;58.32;100104.16;5048293;28;20470;-20
2021/11/22 09:03:25;;;;;;;31.45;19.17;;;;;;;11.13;58.34;100078.13;5048339;28;20154;-20
2021/11/22 09:05:50;;;;;;;29.10;19.45;;;;;;;10.79;59.27;100088.31;5048058;28;20084;-20
2021/11/22 09:08:16;;;;;;;27.58;19.42;;;;;;;11.17;59.48;100089.97;5047629;28;20083;-20
2021/11/22 09:10:42;;;;;;;26.67;19.00;;;;;;;11.38;60.09;100077.22;5049850;28;20017;-20
2021/11/22 09:13:07;;;;;;;25.13;18.70;;;;;;;11.52;59.70;100084.03;5052347;28;20036;-20
2021/11/22 09:15:33;;;;;;;30.05;20.50;;;;;;;11.50;60.49;100075.44;5051769;28;20471;-20
2021/11/22 09:17:58;;;;;;;29.10;18.17;;;;;;;11.08;59.95;100077.16;5052150;28;20037;-20
2021/11/22 09:20:25;;;;;;;29.67;19.40;;;;;;;11.41;59.59;100064.25;5052017;28;20033;-22
2021/11/22 09:22:56;;;;;;;28.90;18.85;;;;;;;11.30;59.79;100080.19;5052270;28;20501;-20
2021/11/22 09:25:21;;;;;;;30.02;18.50;;;;;;;11.20;59.26;100067.38;5052010;28;20017;-20
2021/11/22 09:27:49;;;;;;;27.95;19.40;;;;;;;11.81;59.46;100070.91;5051772;28;20043;-20
2021/11/22 09:30:14;;;;;;;26.10;18.87;;;;;;;11.94;58.98;100061.94;5051533;28;20366;-20
2021/11/22 09:32:40;;;;;;;30.27;19.58;;;;;;;12.12;57.75;100064.56;5052002;28;20271;-20
2021/11/22 09:35:05;;;;;;;29.15;19.45;;;;;;;11.65;60.50;100045.66;5051962;28;20041;-21
2021/11/22 09:37:32;;;;;;;26.15;18.60;;;;;;;12.35;58.10;100060.28;5033883;28;20024;-20
2021/11/22 09:39:57;;;;;;;26.65;17.45;;;;;;;11.91;58.70;100047.19;5051770;28;20031;-21
2021/11/22 09:42:23;;;;;;;26.60;18.02;;;;;;;12.28;57.26;100057.72;5051613;28;20042;-20
2021/11/22 09:44:49;;;;;;;23.67;17.88;;;;;;;12.26;57.71;100033.09;5051508;28;20037;-20
2021/11/22 09:47:14;;;;;;;26.25;17.13;;;;;;;12.37;58.58;100069.72;5051615;28;20033;-20
2021/11/22 09:49:40;;;;;;;25.23;16.73;;;;;;;12.93;55.52;100047.97;5033555;28;20451;-21
2021/11/22 09:52:05;;;;;;;26.75;18.92;;;;;;;12.42;57.38;100044.94;5033542;28;20041;-20
2021/11/22 09:54:31;;;;;;;27.45;19.10;;;;;;;12.94;58.00;100054.97;5051228;28;20090;-20
2021/11/22 09:56:56;;;;;;;26.85;18.95;;;;;;;13.10;56.62;100043.53;5051188;28;20032;-20
2021/11/22 09:59:22;;;;;;;24.75;17.70;;;;;;;12.76;56.56;100013.88;5051340;28;20086;-20
2021/11/22 10:01:51;;;;;;;25.75;17.40;;;;;;;13.09;55.51;100022.34;5051283;28;20071;-20
2021/11/22 10:04:19;;;;;;;25.23;18.05;;;;;;;13.03;56.90;100026.75;5051226;28;20033;-20
2021/11/22 10:07:04;;;;;;;21.67;16.47;;;;;;;13.26;54.76;100024.03;5051031;28;20477;-20
2021/11/22 10:09:33;;;;;;;25.98;17.75;;;;;;;13.87;53.30;100012.84;5035219;28;20032;-20
2021/11/22 10:12:00;;;;;;;25.00;16.88;;;;;;;14.14;52.45;99990.75;5050913;28;20040;-19
2021/11/22 10:14:29;;;;;;;24.20;16.60;;;;;;;14.79;51.29;100013.47;5051213;28;20413;-20
2021/11/22 10:16:55;;;;;;;24.63;16.98;;;;;;;14.79;51.70;100011.63;5051474;28;20424;-20
2021/11/22 10:19:21;;;;;;;22.70;16.63;;;;;;;14.42;53.19;100004.06;5033137;28;20029;-20
2021/11/22 10:21:46;;;;;;;22.13;16.23;;;;;;;15.10;50.88;100008.50;5050501;28;20036;-20
2021/11/22 10:24:12;;;;;;;23.83;16.35;;;;;;;15.43;47.73;99980.69;5032747;28;20033;-21
2021/11/22 10:26:40;;;;;;;22.88;16.58;;;;;;;15.19;49.08;99997.06;5050655;28;20033;-20
2021/11/22 10:29:05;;;;;;;;;;;;;;;15.51;47.64;99999.03;5051155;28;20561;-20
2021/11/22 10:31:33;;;;;;;22.60;14.75;;;;;;;16.29;45.83;99998.69;5050781;28;20407;-20
2021/11/22 10:33:58;;;;;;;22.27;14.67;;;;;;;16.53;45.47;99993.72;5050755;28;20087;-20
2021/11/22 10:36:25;;;;;;;20.90;14.27;;;;;;;16.87;44.37;99990.69;5050270;28;20021;-20
2021/11/22 10:38:59;;;;;;;25.17;16.85;;;;;;;16.21;45.97;99986.50;5050459;28;20083;-20
2021/11/22 10:41:33;;;;;;;23.02;14.73;;;;;;;16.53;44.99;99982.97;5050447;28;20087;-20
2021/11/22 10:44:09;;;;;;;21.20;15.70;;;;;;;16.87;44.66;99975.34;5050771;28;20040;-20
2021/11/22 10:46:39;;;;;;;26.08;16.98;;;;;;;16.65;45.47;99988.13;5050675;28;20032;-20
2021/11/22 10:49:31;;;;;;;28.63;18.30;;;;;;;17.19;43.22;99971.69;5050383;28;20080;-19
2021/11/22 10:52:15;;;;;;;29.80;19.23;;;;;;;17.33;42.72;99979.28;5050255;28;20025;-20
2021/11/22 10:54:56;;;;;;;21.80;16.15;;;;;;;17.43;42.98;99974.72;5050283;28;20029;-20
2021/11/22 10:57:22;;;;;;;21.05;14.68;;;;;;;17.54;41.75;99959.38;5050784;28;20393;-21
2021/11/22 10:59:48;;;;;;;19.30;13.88;;;;;;;17.16;42.02;99968.72;5050324;28;20039;-20
2021/11/22 11:02:14;;;;;;;23.13;15.38;;;;;;;17.15;44.28;99962.53;5049987;28;20029;-20
2021/11/22 11:04:43;;;;;;;25.67;19.13;;;;;;;16.96;43.49;99966.75;5032670;28;20401;-20
2021/11/22 11:07:09;;;;;;;40.72;28.05;;;;;;;17.62;42.34;99966.94;5049993;28;20028;-20
2021/11/22 11:09:35;;;;;;;24.17;17.25;;;;;;;18.30;40.95;99965.06;5050226;28;20454;-20
2021/11/22 11:12:06;;;;;;;19.02;13.15;;;;;;;18.38;39.76;99951.00;5049586;28;20043;-20
2021/11/22 11:14:32;;;;;;;16.73;12.15;;;;;;;17.79;40.95;99968.56;5049485;28;20063;-20
2021/11/22 11:17:10;;;;;;;17.33;11.48;;;;;;;17.55;42.41;99960.19;5050034;28;20035;-21